Time;durP1;ratioP1;P1;durP2;ratioP2;P2;SDS_P1;SDS_P2;PMS_P1;PMS_P2;Temp;Humidity;BMP_temperature;BMP_pressure;BME280_temperature;BME280_humidity;BME280_pressure;Samples;Min_cycle;Max_cycle;Signal;HPM_P1;HPM_P2
2022/05/30 00:00:51;;;;;;;5.72;3.15;;;;;;;11.43;98.18;99011.16;5024317;28;20037;-79
2022/05/30 00:03:17;;;;;;;8.23;3.90;;;;;;;11.55;98.19;99009.53;5042215;28;20032;-78
2022/05/30 00:05:46;;;;;;;5.70;3.58;;;;;;;11.57;98.36;99011.97;5023188;28;20494;-79
2022/05/30 00:08:12;;;;;;;5.30;3.33;;;;;;;11.62;98.20;99008.75;5040813;28;20403;-78
2022/05/30 00:10:38;;;;;;;4.75;3.75;;;;;;;11.57;98.40;98997.00;5044232;28;20043;-79
2022/05/30 00:13:06;;;;;;;8.05;4.15;;;;;;;11.50;98.33;99000.66;5038689;28;20032;-79
2022/05/30 00:15:32;;;;;;;3.85;3.45;;;;;;;11.47;99.12;98991.34;5037400;28;20033;-78
2022/05/30 00:17:58;;;;;;;5.03;3.75;;;;;;;11.49;99.12;98991.13;5031439;28;20045;-79
2022/05/30 00:20:24;;;;;;;9.18;3.90;;;;;;;11.53;99.10;98995.78;5040091;28;20047;-79
2022/05/30 00:22:51;;;;;;;8.63;3.70;;;;;;;11.47;99.76;98983.47;5028581;28;20033;-79
2022/05/30 00:25:18;;;;;;;6.97;5.82;;;;;;;11.47;99.60;98986.09;5045247;28;20025;-78
2022/05/30 00:27:44;;;;;;;7.65;4.13;;;;;;;11.36;100.00;98979.63;5035148;28;20029;-79
2022/05/30 00:30:12;;;;;;;4.97;3.70;;;;;;;11.39;100.00;98979.22;5039711;28;20045;-79
2022/05/30 00:32:38;;;;;;;7.35;4.30;;;;;;;11.38;99.99;98982.84;5041834;28;20056;-79
2022/05/30 00:35:05;;;;;;;6.22;3.72;;;;;;;11.48;99.92;98977.19;5041157;28;20399;-78
2022/05/30 00:37:31;;;;;;;7.40;4.20;;;;;;;11.35;99.96;98977.19;5042863;28;21444;-79
2022/05/30 00:39:57;;;;;;;8.68;4.60;;;;;;;11.44;99.95;98965.47;5039781;28;20029;-78
2022/05/30 00:42:26;;;;;;;8.40;4.10;;;;;;;10.84;100.00;98947.81;5025483;28;20109;-79
2022/05/30 00:44:53;;;;;;;6.57;4.07;;;;;;;11.34;100.00;98970.31;5041644;28;20025;-78
2022/05/30 00:47:20;;;;;;;7.55;3.80;;;;;;;11.17;100.00;98960.19;5043731;28;20389;-78
2022/05/30 00:49:48;;;;;;;10.52;4.47;;;;;;;11.20;100.00;98959.81;5040168;28;20064;-77
2022/05/30 00:52:19;;;;;;;7.90;4.20;;;;;;;11.20;100.00;98944.03;5047396;28;20037;-78
2022/05/30 00:54:52;;;;;;;8.27;3.95;;;;;;;11.27;100.00;98941.38;5047315;28;20033;-79
2022/05/30 00:57:22;;;;;;;6.22;4.35;;;;;;;11.09;100.00;98944.63;5043949;28;20033;-80
2022/05/30 00:59:57;;;;;;;7.60;4.20;;;;;;;11.18;100.00;98935.53;5022361;28;20044;-80
2022/05/30 01:02:32;;;;;;;6.07;4.15;;;;;;;10.88;100.00;98945.56;5044882;28;20055;-79
2022/05/30 01:07:46;;;;;;;4.50;3.72;;;;;;;11.24;100.00;98933.91;5045712;28;20026;-79
2022/05/30 01:10:15;;;;;;;7.43;3.97;;;;;;;11.13;100.00;98927.44;5041943;28;20033;-78
2022/05/30 01:12:53;;;;;;;6.72;4.18;;;;;;;10.61;100.00;98914.84;5045206;28;20090;-79
2022/05/30 01:15:29;;;;;;;6.20;3.80;;;;;;;11.11;100.00;98934.72;5036540;28;20029;-78
2022/05/30 01:18:15;;;;;;;4.35;3.72;;;;;;;10.98;100.00;98927.63;5041294;28;20473;-79
2022/05/30 01:20:56;;;;;;;5.43;4.13;;;;;;;11.12;100.00;98929.28;5041856;28;20067;-79
2022/05/30 01:23:21;;;;;;;7.18;4.38;;;;;;;11.17;100.00;98928.66;5040668;28;20944;-79
2022/05/30 01:25:50;;;;;;;9.98;4.93;;;;;;;11.12;100.00;98923.19;5040556;28;20080;-79
2022/05/30 01:28:22;;;;;;;8.93;4.45;;;;;;;11.18;100.00;98922.38;5046011;28;20359;-79
2022/05/30 01:30:49;;;;;;;5.70;4.25;;;;;;;11.02;100.00;98909.66;5046125;28;20029;-79
2022/05/30 01:33:16;;;;;;;12.48;5.18;;;;;;;10.66;100.00;98907.16;5029119;28;20049;-79
2022/05/30 01:35:42;;;;;;;7.82;4.40;;;;;;;10.81;100.00;98893.88;5044325;28;20041;-78
2022/05/30 01:38:08;;;;;;;11.68;5.40;;;;;;;10.50;100.00;98894.41;5044765;28;20035;-78
2022/05/30 01:40:34;;;;;;;9.18;4.68;;;;;;;10.68;100.00;98901.72;5044416;28;20376;-78
2022/05/30 01:43:00;;;;;;;10.52;5.00;;;;;;;10.76;100.00;98884.97;5042614;28;20100;-78
2022/05/30 01:45:26;;;;;;;8.65;4.45;;;;;;;10.84;100.00;98893.47;5045401;28;20128;-79
2022/05/30 01:47:52;;;;;;;12.68;4.60;;;;;;;10.92;100.00;98881.97;5044921;28;20479;-78
2022/05/30 01:50:18;;;;;;;5.22;4.05;;;;;;;11.08;100.00;98888.63;5023289;28;20029;-79
2022/05/30 01:52:45;;;;;;;8.75;4.50;;;;;;;11.14;100.00;98881.78;5046546;28;20021;-79
2022/05/30 01:55:11;;;;;;;11.70;4.75;;;;;;;10.37;100.00;98880.19;5043649;28;20152;-78
2022/05/30 01:57:40;;;;;;;5.25;3.78;;;;;;;10.31;100.00;98861.81;5046201;28;20115;-78
2022/05/30 02:00:10;;;;;;;8.02;4.43;;;;;;;10.45;100.00;98863.50;5044012;28;20124;-78
2022/05/30 02:02:37;;;;;;;6.05;4.20;;;;;;;10.39;100.00;98854.56;5042554;28;20108;-78
2022/05/30 02:05:04;;;;;;;6.50;4.40;;;;;;;10.41;100.00;98868.31;5041573;28;20060;-78
2022/05/30 02:07:30;;;;;;;8.32;4.38;;;;;;;10.61;100.00;98866.78;5041807;28;20079;-78
2022/05/30 02:09:57;;;;;;;13.73;4.60;;;;;;;10.59;100.00;98872.19;5026374;28;20054;-79
2022/05/30 02:12:22;;;;;;;11.27;5.20;;;;;;;10.32;100.00;98864.25;5038372;28;20033;-78
2022/05/30 02:14:48;;;;;;;8.23;4.80;;;;;;;10.61;100.00;98867.59;5042208;28;20033;-79
2022/05/30 02:17:14;;;;;;;9.52;4.90;;;;;;;10.50;100.00;98855.84;5047309;28;20026;-77
2022/05/30 02:19:44;;;;;;;7.38;4.90;;;;;;;10.23;100.00;98857.56;5039536;28;20100;-79
2022/05/30 02:22:13;;;;;;;9.70;4.70;;;;;;;10.33;100.00;98870.31;5039202;28;20028;-79
2022/05/30 02:24:39;;;;;;;8.25;4.85;;;;;;;10.23;100.00;98854.94;5045538;28;20025;-79
2022/05/30 02:27:07;;;;;;;7.90;4.47;;;;;;;10.32;100.00;98861.63;5023736;28;20116;-78
2022/05/30 02:29:34;;;;;;;6.57;4.53;;;;;;;10.38;100.00;98846.91;5044117;28;20060;-78
2022/05/30 02:31:59;;;;;;;8.52;4.68;;;;;;;10.46;100.00;98844.13;5038484;28;20026;-79
2022/05/30 02:37:10;;;;;;;7.28;4.20;;;;;;;10.34;100.00;98850.94;5043705;28;20494;-79
2022/05/30 02:39:36;;;;;;;7.93;4.20;;;;;;;10.40;100.00;98845.72;5043171;28;20029;-78
2022/05/30 02:42:01;;;;;;;6.47;4.70;;;;;;;10.52;100.00;98837.28;5029273;28;20033;-79
2022/05/30 02:44:27;;;;;;;6.80;4.50;;;;;;;10.39;100.00;98832.78;5028615;28;20479;-79
2022/05/30 02:46:57;;;;;;;7.18;5.00;;;;;;;10.61;100.00;98843.97;5041188;28;20044;-79
2022/05/30 02:49:26;;;;;;;8.63;4.60;;;;;;;10.77;100.00;98841.94;5038698;28;20547;-79
2022/05/30 02:51:52;;;;;;;7.63;4.72;;;;;;;10.79;100.00;98839.94;5045079;28;20083;-79
2022/05/30 02:54:18;;;;;;;7.50;4.57;;;;;;;10.90;100.00;98841.16;5027570;28;20547;-78
2022/05/30 02:56:57;;;;;;;7.35;4.68;;;;;;;10.97;100.00;98834.88;5025906;28;20033;-80
2022/05/30 02:59:23;;;;;;;10.52;4.70;;;;;;;11.02;100.00;98836.13;5040537;28;20143;-78
2022/05/30 03:01:49;;;;;;;8.75;4.25;;;;;;;11.02;100.00;98821.16;5023316;28;20037;-78
2022/05/30 03:04:15;;;;;;;7.47;4.22;;;;;;;11.12;100.00;98836.50;5036937;28;20435;-79
2022/05/30 03:06:43;;;;;;;5.50;3.60;;;;;;;10.97;100.00;98819.13;5035466;28;20032;-79
2022/05/30 03:09:10;;;;;;;7.05;3.83;;;;;;;11.04;100.00;98826.22;5035954;28;20032;-79
2022/05/30 03:11:36;;;;;;;6.85;3.80;;;;;;;11.02;100.00;98820.38;5039525;28;20041;-79
2022/05/30 03:14:01;;;;;;;8.18;4.60;;;;;;;11.04;100.00;98819.13;5043709;28;20086;-79
2022/05/30 03:16:27;;;;;;;7.47;3.63;;;;;;;10.93;100.00;98807.44;5038394;28;20057;-79
2022/05/30 03:18:53;;;;;;;8.40;4.00;;;;;;;11.03;100.00;98811.47;5042025;28;20033;-78
2022/05/30 03:21:19;;;;;;;8.40;4.10;;;;;;;11.05;100.00;98814.72;5039296;28;20033;-79
2022/05/30 03:23:45;;;;;;;5.57;3.90;;;;;;;11.02;100.00;98809.88;5040208;28;20417;-79
2022/05/30 03:26:11;;;;;;;7.38;4.30;;;;;;;11.03;100.00;98803.59;5047206;28;20032;-79
2022/05/30 03:28:38;;;;;;;8.65;4.00;;;;;;;11.04;100.00;98811.25;5040467;28;20032;-78
2022/05/30 03:31:07;;;;;;;6.53;4.18;;;;;;;10.97;100.00;98808.63;5041274;28;20029;-79
2022/05/30 03:33:36;;;;;;;10.00;4.43;;;;;;;11.02;100.00;98799.34;5041420;28;20041;-78
2022/05/30 03:36:07;;;;;;;8.13;4.93;;;;;;;10.98;100.00;98805.00;5039746;28;20047;-78
2022/05/30 03:38:33;;;;;;;5.53;3.88;;;;;;;10.93;100.00;98809.25;5039772;28;20116;-79
2022/05/30 03:40:59;;;;;;;4.97;4.10;;;;;;;10.91;100.00;98790.28;5037916;28;20029;-79
2022/05/30 03:43:26;;;;;;;7.38;4.80;;;;;;;11.00;100.00;98810.88;5039357;28;20029;-79
2022/05/30 03:45:52;;;;;;;4.63;3.80;;;;;;;10.94;100.00;98795.91;5041922;28;20083;-79
2022/05/30 03:48:20;;;;;;;7.03;4.07;;;;;;;11.00;100.00;98797.75;5043089;28;20036;-78
2022/05/30 03:50:48;;;;;;;7.63;4.18;;;;;;;10.88;100.00;98794.09;5036917;28;20117;-79
2022/05/30 03:53:14;;;;;;;6.80;4.10;;;;;;;10.95;100.00;98794.91;5039067;28;20033;-78
2022/05/30 03:55:43;;;;;;;6.57;4.60;;;;;;;10.92;100.00;98795.31;5040964;28;20039;-78
2022/05/30 03:58:10;;;;;;;6.35;4.32;;;;;;;10.93;100.00;98793.50;5040019;28;20538;-78
2022/05/30 04:00:38;;;;;;;8.43;5.60;;;;;;;10.82;100.00;98792.28;5040945;28;20029;-78
2022/05/30 04:03:06;;;;;;;8.20;4.53;;;;;;;10.97;100.00;98803.38;5036464;28;20108;-78
2022/05/30 04:05:32;;;;;;;7.75;4.72;;;;;;;10.85;100.00;98790.06;5020972;28;20037;-78
2022/05/30 04:07:58;;;;;;;8.65;4.80;;;;;;;10.95;100.00;98792.28;5037707;28;20030;-79
2022/05/30 04:10:25;;;;;;;8.55;4.28;;;;;;;10.95;100.00;98794.91;5041886;28;20577;-78
2022/05/30 04:12:58;;;;;;;11.45;5.30;;;;;;;10.80;100.00;98796.91;5038734;28;20025;-78
2022/05/30 04:15:23;;;;;;;6.65;5.75;;;;;;;10.58;100.00;98789.22;5040351;28;20036;-77
2022/05/30 04:17:50;;;;;;;7.88;5.75;;;;;;;10.47;100.00;98788.00;5040669;28;20035;-77
2022/05/30 04:20:16;;;;;;;12.13;5.80;;;;;;;10.43;100.00;98779.75;5040171;28;20037;-78
2022/05/30 04:22:44;;;;;;;6.47;4.85;;;;;;;10.70;100.00;98768.44;5044056;28;20029;-78
2022/05/30 04:25:10;;;;;;;8.15;4.78;;;;;;;10.74;100.00;98767.03;5039745;28;20052;-77
2022/05/30 04:27:36;;;;;;;8.63;5.63;;;;;;;10.84;100.00;98771.88;5041051;28;20032;-78
2022/05/30 04:30:04;;;;;;;13.32;5.70;;;;;;;10.60;100.00;98771.47;5021751;28;20495;-77
2022/05/30 04:32:30;;;;;;;9.77;5.15;;;;;;;10.69;100.00;98759.75;5041211;28;20128;-79
2022/05/30 04:34:56;;;;;;;6.30;4.55;;;;;;;10.85;100.00;98757.75;5040614;28;20037;-77
2022/05/30 04:37:21;;;;;;;8.88;4.93;;;;;;;10.82;100.00;98752.91;5040796;28;20417;-77
2022/05/30 04:39:48;;;;;;;9.45;5.80;;;;;;;10.67;100.00;98760.97;5041246;28;20029;-77
2022/05/30 04:42:13;;;;;;;7.03;5.10;;;;;;;10.94;100.00;98767.03;5040058;28;20036;-78
2022/05/30 04:44:38;;;;;;;7.35;5.50;;;;;;;10.75;100.00;98757.34;5036218;28;20025;-79
2022/05/30 04:47:05;;;;;;;8.25;6.60;;;;;;;10.46;100.00;98754.09;5039444;28;20430;-78
2022/05/30 04:49:31;;;;;;;9.88;6.75;;;;;;;10.62;100.00;98743.22;5040856;28;20119;-77
2022/05/30 04:51:57;;;;;;;11.77;6.20;;;;;;;10.86;100.00;98748.84;5044764;28;20076;-78
2022/05/30 04:54:24;;;;;;;12.15;7.20;;;;;;;10.76;100.00;98748.44;5039782;28;20058;-77
2022/05/30 04:56:51;;;;;;;18.27;7.88;;;;;;;10.45;100.00;98748.03;5039786;28;20029;-77
2022/05/30 04:59:18;;;;;;;11.93;8.32;;;;;;;10.82;100.00;98737.16;5040081;28;20029;-78
2022/05/30 05:01:44;;;;;;;10.80;8.75;;;;;;;10.85;100.00;98742.00;5035140;28;20068;-78
2022/05/30 05:04:11;;;;;;;13.02;8.55;;;;;;;11.14;100.00;98737.28;5037771;28;20025;-77
2022/05/30 05:06:38;;;;;;;14.05;8.57;;;;;;;10.70;100.00;98735.13;5034641;28;20415;-78
2022/05/30 05:09:16;;;;;;;9.73;8.02;;;;;;;10.69;100.00;98733.50;5036943;28;20036;-78
2022/05/30 05:11:42;;;;;;;14.77;9.38;;;;;;;10.77;100.00;98740.38;5039473;28;20025;-78
2022/05/30 05:14:08;;;;;;;16.10;9.77;;;;;;;10.96;100.00;98732.69;5040283;28;20037;-78
2022/05/30 05:16:35;;;;;;;14.25;9.32;;;;;;;11.06;100.00;98724.38;5026403;28;20498;-78
2022/05/30 05:19:01;;;;;;;14.27;8.57;;;;;;;11.28;100.00;98730.19;5039083;28;20072;-79
2022/05/30 05:21:35;;;;;;;15.93;9.40;;;;;;;11.28;100.00;98728.38;5040178;28;20025;-78
2022/05/30 05:24:03;;;;;;;11.95;8.52;;;;;;;11.53;100.00;98732.94;5039227;28;20096;-78
2022/05/30 05:26:28;;;;;;;12.25;8.35;;;;;;;11.50;100.00;98711.53;5040293;28;20116;-78
2022/05/30 05:28:54;;;;;;;14.73;9.25;;;;;;;11.57;100.00;98707.03;5039379;28;20626;-78
2022/05/30 05:31:24;;;;;;;10.98;7.35;;;;;;;11.88;100.00;98728.34;5040356;28;20064;-78
2022/05/30 05:33:52;;;;;;;11.20;8.23;;;;;;;12.00;100.00;98718.78;5040827;28;20127;-78
2022/05/30 05:36:20;;;;;;;10.57;8.13;;;;;;;11.95;100.00;98715.94;5043107;28;20029;-78
2022/05/30 05:38:46;;;;;;;11.10;7.57;;;;;;;11.95;100.00;98718.56;5042827;28;20040;-77
2022/05/30 05:41:12;;;;;;;14.00;8.27;;;;;;;11.85;100.00;98717.22;5045079;28;20390;-78
2022/05/30 05:43:38;;;;;;;11.85;7.68;;;;;;;11.65;100.00;98703.38;5044613;28;20024;-78
2022/05/30 05:46:03;;;;;;;10.02;7.93;;;;;;;11.58;100.00;98704.19;5039938;28;20513;-77
2022/05/30 05:48:29;;;;;;;13.82;9.23;;;;;;;11.49;100.00;98709.88;5036819;28;20036;-78
2022/05/30 05:50:54;;;;;;;13.05;9.25;;;;;;;11.32;100.00;98720.91;5041560;28;20112;-78
2022/05/30 05:53:21;;;;;;;12.25;8.50;;;;;;;11.12;100.00;98726.19;5042651;28;20029;-77
2022/05/30 05:55:46;;;;;;;13.90;9.43;;;;;;;11.02;100.00;98721.34;5045177;28;20036;-78
2022/05/30 05:58:12;;;;;;;13.23;10.13;;;;;;;10.91;100.00;98725.41;5039083;28;20037;-78
2022/05/30 06:00:38;;;;;;;14.02;9.18;;;;;;;10.85;100.00;98731.50;5041882;28;20043;-78
2022/05/30 06:03:04;;;;;;;12.30;8.52;;;;;;;10.84;100.00;98740.38;5037805;28;20064;-78
2022/05/30 06:05:33;;;;;;;15.00;8.27;;;;;;;10.80;100.00;98733.91;5042762;28;20424;-78
2022/05/30 06:08:00;;;;;;;14.68;10.73;;;;;;;10.61;100.00;98731.09;5040974;28;20037;-81
2022/05/30 06:10:26;;;;;;;14.32;9.95;;;;;;;10.69;100.00;98723.03;5039892;28;20533;-80
2022/05/30 06:12:51;;;;;;;18.13;10.50;;;;;;;10.56;100.00;98733.50;5041970;28;20037;-81
2022/05/30 06:15:19;;;;;;;19.85;11.88;;;;;;;10.49;100.00;98727.47;5045484;28;20029;-81
2022/05/30 06:17:46;;;;;;;19.20;11.88;;;;;;;10.82;100.00;98724.03;5041149;28;20115;-88
2022/05/30 06:20:14;;;;;;;20.25;12.90;;;;;;;10.87;100.00;98734.72;5042781;28;20029;-83
2022/05/30 06:22:40;;;;;;;19.63;13.50;;;;;;;10.80;100.00;98726.03;5047186;28;20498;-80
2022/05/30 06:25:07;;;;;;;17.15;12.65;;;;;;;11.18;100.00;98725.34;5045042;28;20056;-82
2022/05/30 06:27:34;;;;;;;16.02;11.13;;;;;;;11.06;100.00;98722.56;5039028;28;20542;-85
2022/05/30 06:30:01;;;;;;;18.48;11.55;;;;;;;10.88;100.00;98723.19;5039274;28;20029;-87
2022/05/30 06:32:26;;;;;;;18.85;11.23;;;;;;;10.82;100.00;98713.53;5028648;28;20079;-83
2022/05/30 06:34:52;;;;;;;17.23;11.05;;;;;;;10.97;100.00;98716.72;5039921;28;20041;-83
2022/05/30 06:37:19;;;;;;;18.88;11.43;;;;;;;11.35;100.00;98709.13;5040573;28;20115;-83
2022/05/30 06:39:45;;;;;;;18.77;10.55;;;;;;;11.45;100.00;98706.91;5020324;28;20471;-82
2022/05/30 06:42:13;;;;;;;18.48;10.60;;;;;;;11.90;100.00;98708.72;5041452;28;20029;-84
2022/05/30 06:44:40;;;;;;;17.25;10.32;;;;;;;12.18;100.00;98717.25;5033667;28;20548;-82
2022/05/30 06:47:07;;;;;;;18.35;10.55;;;;;;;12.16;100.00;98712.22;5043729;28;20025;-81
2022/05/30 06:49:34;;;;;;;14.05;9.77;;;;;;;12.23;100.00;98714.81;5042339;28;20029;-82
2022/05/30 06:52:05;;;;;;;14.40;9.88;;;;;;;12.16;100.00;98719.28;5040433;28;20017;-83
2022/05/30 06:54:34;;;;;;;13.85;9.68;;;;;;;12.16;100.00;98699.06;5018222;28;20042;-84
2022/05/30 06:59:47;;;;;;;16.30;8.93;;;;;;;12.26;100.00;98698.59;5034777;28;20381;-84
2022/05/30 07:02:13;;;;;;;13.90;8.13;;;;;;;12.61;100.00;98686.75;5043133;28;20071;-85
2022/05/30 07:04:38;;;;;;;12.70;8.75;;;;;;;12.80;100.00;98708.69;5041257;28;20032;-82
2022/05/30 07:07:05;;;;;;;11.90;8.30;;;;;;;12.70;100.00;98702.06;5036548;28;20382;-81
2022/05/30 07:09:34;;;;;;;12.60;8.80;;;;;;;13.39;100.00;98692.44;5042136;28;20029;-81
2022/05/30 07:12:00;;;;;;;18.08;8.70;;;;;;;13.70;100.00;98685.38;5040803;28;20056;-82
2022/05/30 07:14:28;;;;;;;8.40;6.28;;;;;;;13.40;99.48;98696.69;5038742;28;20029;-82
2022/05/30 07:16:54;;;;;;;16.42;8.20;;;;;;;13.27;100.00;98698.44;5042102;28;20497;-83
2022/05/30 07:19:20;;;;;;;14.30;7.63;;;;;;;13.87;98.89;98695.31;5039341;28;20043;-82
2022/05/30 07:21:48;;;;;;;10.32;7.53;;;;;;;13.80;98.41;98688.28;5021441;28;20034;-81
2022/05/30 07:24:14;;;;;;;12.77;8.10;;;;;;;13.94;97.19;98690.72;5036287;28;20104;-81
2022/05/30 07:26:40;;;;;;;11.20;8.70;;;;;;;13.63;96.32;98689.94;5035118;28;20116;-80
2022/05/30 07:29:06;;;;;;;13.20;9.43;;;;;;;13.52;98.58;98689.66;5039214;28;20422;-80
2022/05/30 07:31:31;;;;;;;14.30;9.18;;;;;;;13.94;98.46;98691.53;5034061;28;20064;-80
2022/05/30 07:33:58;;;;;;;10.45;8.95;;;;;;;14.54;97.59;98678.44;5063372;28;20076;-80
2022/05/30 07:36:30;;;;;;;11.10;9.27;;;;;;;14.38;96.76;98672.81;5034629;28;20033;-80
2022/05/30 07:38:56;;;;;;;17.35;9.52;;;;;;;14.14;98.04;98674.63;5033100;28;20052;-80
2022/05/30 07:41:23;;;;;;;12.25;9.13;;;;;;;14.74;94.53;98677.31;5041335;28;20079;-82
2022/05/30 07:43:49;;;;;;;22.02;9.80;;;;;;;14.36;95.53;98674.88;5042592;28;20386;-82
2022/05/30 07:46:17;;;;;;;13.90;7.53;;;;;;;14.66;93.58;98666.03;5039138;28;20051;-82
2022/05/30 07:48:44;;;;;;;14.63;7.10;;;;;;;15.35;93.15;98669.06;5041900;28;20025;-83
2022/05/30 07:51:11;;;;;;;14.20;6.07;;;;;;;15.37;92.90;98667.00;5037839;28;20041;-81
2022/05/30 07:53:38;;;;;;;6.93;5.00;;;;;;;15.67;90.82;98658.81;5024441;28;20037;-80
2022/05/30 07:56:06;;;;;;;8.70;4.57;;;;;;;15.19;90.24;98652.91;5036584;28;20049;-80
2022/05/30 07:58:33;;;;;;;8.02;4.25;;;;;;;15.62;90.49;98656.06;5029250;28;20037;-80
2022/05/30 08:00:59;;;;;;;5.55;4.55;;;;;;;16.06;91.13;98650.22;5032512;28;20137;-80
2022/05/30 08:03:26;;;;;;;9.30;3.90;;;;;;;15.83;90.37;98661.75;5040349;28;20556;-79
2022/05/30 08:06:04;;;;;;;8.20;3.88;;;;;;;15.05;90.18;98656.84;5037148;28;20028;-81
2022/05/30 08:08:30;;;;;;;7.20;3.42;;;;;;;15.28;90.95;98662.06;5036068;28;20031;-82
2022/05/30 08:10:55;;;;;;;5.03;3.30;;;;;;;15.17;91.13;98654.97;5039445;28;20029;-81
2022/05/30 08:13:24;;;;;;;5.25;3.35;;;;;;;15.49;91.02;98657.16;5034737;28;20029;-81
2022/05/30 08:15:50;;;;;;;7.40;3.20;;;;;;;15.46;89.21;98657.63;5037339;28;20037;-81
2022/05/30 08:18:18;;;;;;;5.15;3.20;;;;;;;15.47;89.38;98656.59;5036542;28;20037;-83
2022/05/30 08:20:44;;;;;;;6.10;3.10;;;;;;;15.93;89.82;98653.22;5029673;28;20368;-81
2022/05/30 08:23:11;;;;;;;6.00;3.47;;;;;;;15.76;88.09;98646.00;5014728;28;20053;-82
2022/05/30 08:25:39;;;;;;;3.30;3.03;;;;;;;15.68;88.58;98643.72;5034202;28;20494;-81
2022/05/30 08:28:05;;;;;;;4.20;2.92;;;;;;;14.35;88.90;98654.81;5031563;28;20047;-83
2022/05/30 08:30:31;;;;;;;4.72;3.10;;;;;;;14.06;90.23;98662.56;5015830;28;20108;-81
2022/05/30 08:32:57;;;;;;;3.70;3.10;;;;;;;14.61;89.50;98651.91;5035492;28;20124;-81
2022/05/30 08:35:23;;;;;;;5.10;3.10;;;;;;;14.71;88.68;98663.53;5032501;28;20033;-81
2022/05/30 08:37:49;;;;;;;3.45;3.15;;;;;;;14.61;89.12;98650.09;5039151;28;20486;-82
2022/05/30 08:43:19;;;;;;;3.50;3.00;;;;;;;14.63;88.87;98669.16;5034589;28;22138;-81
2022/05/30 08:45:46;;;;;;;3.63;2.65;;;;;;;13.74;90.13;98660.16;5034099;28;20037;-82
2022/05/30 08:48:19;;;;;;;3.63;2.80;;;;;;;13.35;91.75;98673.63;5031588;28;20030;-83
2022/05/30 08:50:57;;;;;;;4.32;3.03;;;;;;;13.50;92.27;98680.38;5016360;28;20025;-82
2022/05/30 08:53:44;;;;;;;6.95;3.40;;;;;;;13.32;93.86;98673.25;5035590;28;20068;-80
2022/05/30 08:56:27;;;;;;;7.63;4.00;;;;;;;13.19;94.94;98674.22;5033940;28;20111;-80
2022/05/30 08:59:20;;;;;;;5.35;4.22;;;;;;;13.31;93.79;98676.91;5038079;28;20033;-83
2022/05/30 09:02:05;;;;;;;6.75;4.00;;;;;;;13.61;95.13;98665.63;5042001;28;20104;-80
2022/05/30 09:04:41;;;;;;;5.95;3.60;;;;;;;14.09;93.33;98672.66;5037210;28;20049;-81
2022/05/30 09:07:21;;;;;;;8.65;3.55;;;;;;;13.83;93.63;98665.91;5036648;28;20340;-81
2022/05/30 09:10:07;;;;;;;6.57;3.47;;;;;;;14.19;93.26;98660.75;5040449;28;20072;-81
2022/05/30 09:12:45;;;;;;;5.15;3.20;;;;;;;13.94;94.38;98664.34;5026841;28;20035;-84
2022/05/30 09:15:43;;;;;;;4.25;3.00;;;;;;;13.35;94.33;98659.63;5026404;28;20029;-83
2022/05/30 09:18:11;;;;;;;5.13;2.90;;;;;;;13.27;95.70;98660.75;5025722;28;20037;-82
2022/05/30 09:20:41;;;;;;;3.92;3.22;;;;;;;13.62;94.70;98654.06;5040077;28;20467;-82
2022/05/30 09:23:12;;;;;;;5.47;3.15;;;;;;;13.74;94.30;98646.19;5044741;28;20034;-83
2022/05/30 09:25:56;;;;;;;4.32;2.80;;;;;;;13.75;94.33;98650.44;5037754;28;20445;-81
2022/05/30 09:28:24;;;;;;;4.55;2.97;;;;;;;13.66;93.21;98650.75;5071364;28;20066;-84
2022/05/30 09:31:13;;;;;;;3.78;3.00;;;;;;;13.70;91.99;98643.19;5041015;28;20544;-82
2022/05/30 09:33:42;;;;;;;4.80;2.70;;;;;;;12.93;93.56;98645.31;5041441;28;20379;-85
2022/05/30 09:36:11;;;;;;;5.75;3.00;;;;;;;13.78;91.62;98642.06;5044044;28;20026;-86
2022/05/30 09:38:47;;;;;;;6.97;3.20;;;;;;;14.46;90.38;98636.53;5024918;28;20040;-88
2022/05/30 09:41:20;;;;;;;8.52;3.00;;;;;;;14.71;89.09;98636.31;5025093;28;20033;-83
2022/05/30 09:43:59;;;;;;;5.85;3.35;;;;;;;15.10;87.81;98630.50;5039369;28;20037;-84
2022/05/30 09:46:42;;;;;;;4.35;3.25;;;;;;;15.14;87.24;98629.00;5038843;28;20082;-83
2022/05/30 09:49:37;;;;;;;4.63;3.30;;;;;;;15.26;86.77;98629.75;5040788;28;20623;-84
2022/05/30 09:52:21;;;;;;;3.50;3.20;;;;;;;14.97;86.86;98623.63;5042723;28;20432;-84
2022/05/30 09:54:47;;;;;;;10.70;3.78;;;;;;;15.32;86.36;98624.56;5044411;28;20025;-83
2022/05/30 09:57:19;;;;;;;4.70;3.85;;;;;;;15.33;85.72;98621.69;5045508;28;20919;-84
2022/05/30 09:59:50;;;;;;;7.03;3.45;;;;;;;15.00;87.05;98623.16;5043667;28;20036;-84
2022/05/30 10:02:22;;;;;;;4.70;3.28;;;;;;;15.14;85.75;98613.16;5044437;28;20151;-83
2022/05/30 10:04:55;;;;;;;6.82;3.17;;;;;;;14.78;86.05;98609.78;5038711;28;20037;-85
2022/05/30 10:07:22;;;;;;;5.72;3.33;;;;;;;14.91;87.17;98614.78;5041221;28;20079;-84
2022/05/30 10:09:52;;;;;;;3.90;3.05;;;;;;;14.38;88.60;98627.13;5038896;28;20390;-83
2022/05/30 10:12:44;;;;;;;4.75;3.20;;;;;;;15.22;87.47;98631.28;5043862;28;20120;-83
2022/05/30 10:15:22;;;;;;;5.05;3.13;;;;;;;15.16;87.04;98624.28;5038785;28;20083;-84
2022/05/30 10:17:50;;;;;;;5.97;3.10;;;;;;;15.27;85.78;98623.44;5025063;28;20543;-84
2022/05/30 10:20:41;;;;;;;5.65;3.20;;;;;;;15.12;86.76;98625.78;5046896;28;20480;-83
2022/05/30 10:29:27;;;;;;;5.80;3.42;;;;;;;14.26;86.12;98619.19;5040951;28;20029;-84
2022/05/30 10:32:03;;;;;;;3.70;3.38;;;;;;;14.38;85.64;98617.38;5039269;28;20043;-84
2022/05/30 10:34:37;;;;;;;5.95;3.38;;;;;;;15.28;84.39;98622.41;5044942;28;20090;-87
2022/05/30 10:37:44;;;;;;;6.53;3.50;;;;;;;15.21;84.35;98616.44;5040122;28;20049;-81
2022/05/30 10:40:16;;;;;;;6.47;3.20;;;;;;;14.31;86.09;98626.44;5025264;28;20117;-82
2022/05/30 10:43:35;;;;;;;4.18;3.10;;;;;;;15.12;84.04;98616.03;5040818;28;20021;-83
2022/05/30 10:46:24;;;;;;;3.83;2.92;;;;;;;16.48;82.19;98613.75;4976024;28;20483;-83
2022/05/30 10:49:13;;;;;;;6.80;3.10;;;;;;;16.87;81.06;98605.78;4975346;28;20121;-83
2022/05/30 10:51:48;;;;;;;3.20;2.80;;;;;;;16.27;79.57;98608.19;5041097;28;20487;-83
2022/05/30 10:54:42;;;;;;;4.95;2.72;;;;;;;17.35;78.87;98600.78;5024712;28;21550;-83
2022/05/30 10:57:10;;;;;;;;;;;;;;;17.17;77.83;98598.47;5022902;28;20041;-83
2022/05/30 10:59:44;;;;;;;3.92;2.95;;;;;;;16.79;78.30;98587.69;5045595;28;19913;-83
2022/05/30 11:02:41;;;;;;;4.88;2.92;;;;;;;17.93;77.08;98594.16;5039206;28;20036;-82
2022/05/30 11:05:29;;;;;;;3.20;2.90;;;;;;;17.98;76.41;98591.53;5038966;28;20071;-83
2022/05/30 11:08:14;;;;;;;5.97;2.90;;;;;;;16.64;77.12;98594.38;5034741;28;20768;-82
2022/05/30 11:10:51;;;;;;;3.40;3.10;;;;;;;18.06;76.01;98583.09;5036993;28;20112;-82
2022/05/30 11:13:20;;;;;;;4.90;2.90;;;;;;;16.70;76.87;98588.13;5039403;28;20116;-81
2022/05/30 11:16:13;;;;;;;4.43;2.83;;;;;;;17.28;75.87;98590.38;5037556;28;20116;-81
2022/05/30 11:19:18;;;;;;;6.40;3.00;;;;;;;17.53;74.93;98580.25;5036319;28;20088;-80
2022/05/30 11:21:49;;;;;;;5.55;2.90;;;;;;;17.62;75.87;98583.25;5040341;28;20090;-81
2022/05/30 11:24:16;;;;;;;4.53;2.97;;;;;;;18.10;75.48;98578.09;5041896;28;20031;-82
2022/05/30 11:27:19;;;;;;;5.82;3.25;;;;;;;16.35;77.36;98591.06;5039514;28;20495;-81
2022/05/30 11:30:02;;;;;;;5.63;2.88;;;;;;;16.56;78.26;98585.00;5017878;28;20099;-82
2022/05/30 11:32:53;;;;;;;6.35;3.55;;;;;;;16.13;78.32;98587.34;5020581;28;20041;-83
2022/05/30 11:35:24;;;;;;;6.28;3.47;;;;;;;15.48;77.79;98592.06;5034078;28;20129;-80
2022/05/30 11:38:02;;;;;;;5.63;2.72;;;;;;;16.46;76.76;98584.06;5038607;28;20056;-80
2022/05/30 11:40:43;;;;;;;4.80;3.20;;;;;;;16.81;75.73;98593.53;5035050;28;20037;-80
2022/05/30 11:43:47;;;;;;;4.72;3.03;;;;;;;16.72;75.00;98585.22;5040778;28;20037;-81
2022/05/30 11:46:49;;;;;;;3.63;3.10;;;;;;;16.60;75.59;98585.31;5036969;28;20021;-80
2022/05/30 11:49:34;;;;;;;8.32;3.70;;;;;;;17.94;74.42;98585.13;5052360;28;21021;-82
2022/05/30 11:52:24;;;;;;;5.60;2.90;;;;;;;17.69;72.55;98574.03;5036661;28;20033;-81
2022/05/30 11:55:15;;;;;;;4.28;2.95;;;;;;;17.51;73.09;98572.56;5052071;28;20039;-81
2022/05/30 11:57:53;;;;;;;6.95;3.13;;;;;;;17.90;73.26;98579.50;5034251;28;20041;-82
2022/05/30 12:00:42;;;;;;;3.50;3.20;;;;;;;16.65;75.03;98581.94;5032221;28;20035;-83